sensor_id;sensor_type;location;lat;lon;timestamp;P1;P2;P0
74078;PMS5003;62437;51.544;-3.276;2022-12-18T00:00:24;20;18;
74078;PMS5003;62437;51.544;-3.276;2022-12-18T00:02:50;22;18;
74078;PMS5003;62437;51.544;-3.276;2022-12-18T00:05:15;18;18;
74078;PMS5003;62437;51.544;-3.276;2022-12-18T00:07:40;19;19;
74078;PMS5003;62437;51.544;-3.276;2022-12-18T00:10:06;23;20;
74078;PMS5003;62437;51.544;-3.276;2022-12-18T00:12:31;26;22;
74078;PMS5003;62437;51.544;-3.276;2022-12-18T00:14:57;23;20;
74078;PMS5003;62437;51.544;-3.276;2022-12-18T00:17:22;22;20;
74078;PMS5003;62437;51.544;-3.276;2022-12-18T00:19:47;31;23;
74078;PMS5003;62437;51.544;-3.276;2022-12-18T00:22:12;30;26;
74078;PMS5003;62437;51.544;-3.276;2022-12-18T00:24:38;19;18;
74078;PMS5003;62437;51.544;-3.276;2022-12-18T00:27:04;16;16;
74078;PMS5003;62437;51.544;-3.276;2022-12-18T00:29:29;20;17;
74078;PMS5003;62437;51.544;-3.276;2022-12-18T00:31:54;26;24;
74078;PMS5003;62437;51.544;-3.276;2022-12-18T00:34:20;20;20;
74078;PMS5003;62437;51.544;-3.276;2022-12-18T00:36:47;27;27;
74078;PMS5003;62437;51.544;-3.276;2022-12-18T00:39:11;28;24;
74078;PMS5003;62437;51.544;-3.276;2022-12-18T00:41:36;22;20;
74078;PMS5003;62437;51.544;-3.276;2022-12-18T00:44:02;26;23;
74078;PMS5003;62437;51.544;-3.276;2022-12-18T00:46:27;22;20;
74078;PMS5003;62437;51.544;-3.276;2022-12-18T00:48:53;27;26;
74078;PMS5003;62437;51.544;-3.276;2022-12-18T00:51:17;27;23;
74078;PMS5003;62437;51.544;-3.276;2022-12-18T00:53:43;28;24;
74078;PMS5003;62437;51.544;-3.276;2022-12-18T00:56:08;27;26;
74078;PMS5003;62437;51.544;-3.276;2022-12-18T00:58:35;24;23;
74078;PMS5003;62437;51.544;-3.276;2022-12-18T01:00:59;23;22;
74078;PMS5003;62437;51.544;-3.276;2022-12-18T01:03:25;27;26;
74078;PMS5003;62437;51.544;-3.276;2022-12-18T01:05:50;22;18;
74078;PMS5003;62437;51.544;-3.276;2022-12-18T01:08:15;26;22;
74078;PMS5003;62437;51.544;-3.276;2022-12-18T01:10:41;26;24;
74078;PMS5003;62437;51.544;-3.276;2022-12-18T01:13:06;22;18;
74078;PMS5003;62437;51.544;-3.276;2022-12-18T01:15:31;24;23;
74078;PMS5003;62437;51.544;-3.276;2022-12-18T01:17:57;16;16;
74078;PMS5003;62437;51.544;-3.276;2022-12-18T01:20:22;20;19;
74078;PMS5003;62437;51.544;-3.276;2022-12-18T01:22:48;22;18;
74078;PMS5003;62437;51.544;-3.276;2022-12-18T01:25:13;20;18;
74078;PMS5003;62437;51.544;-3.276;2022-12-18T01:27:38;22;20;
74078;PMS5003;62437;51.544;-3.276;2022-12-18T01:30:05;26;24;
74078;PMS5003;62437;51.544;-3.276;2022-12-18T01:32:30;26;22;
74078;PMS5003;62437;51.544;-3.276;2022-12-18T01:34:55;19;17;
74078;PMS5003;62437;51.544;-3.276;2022-12-18T01:37:20;23;22;
74078;PMS5003;62437;51.544;-3.276;2022-12-18T01:39:45;26;24;
74078;PMS5003;62437;51.544;-3.276;2022-12-18T01:42:12;23;23;
74078;PMS5003;62437;51.544;-3.276;2022-12-18T01:47:02;24;22;
74078;PMS5003;62437;51.544;-3.276;2022-12-18T01:49:27;23;22;
74078;PMS5003;62437;51.544;-3.276;2022-12-18T01:51:52;23;23;
74078;PMS5003;62437;51.544;-3.276;2022-12-18T01:54:18;22;22;
74078;PMS5003;62437;51.544;-3.276;2022-12-18T01:56:43;23;22;
74078;PMS5003;62437;51.544;-3.276;2022-12-18T01:59:09;31;30;
74078;PMS5003;62437;51.544;-3.276;2022-12-18T02:01:34;24;23;
74078;PMS5003;62437;51.544;-3.276;2022-12-18T02:06:27;26;20;
74078;PMS5003;62437;51.544;-3.276;2022-12-18T02:08:58;26;23;
74078;PMS5003;62437;51.544;-3.276;2022-12-18T02:11:17;19;19;
74078;PMS5003;62437;51.544;-3.276;2022-12-18T02:13:44;22;22;
74078;PMS5003;62437;51.544;-3.276;2022-12-18T02:16:08;26;23;
74078;PMS5003;62437;51.544;-3.276;2022-12-18T02:18:33;19;18;
74078;PMS5003;62437;51.544;-3.276;2022-12-18T02:20:59;22;18;
74078;PMS5003;62437;51.544;-3.276;2022-12-18T02:23:27;26;24;
74078;PMS5003;62437;51.544;-3.276;2022-12-18T02:25:53;22;22;
74078;PMS5003;62437;51.544;-3.276;2022-12-18T02:28:15;23;20;
74078;PMS5003;62437;51.544;-3.276;2022-12-18T02:30:40;19;19;
74078;PMS5003;62437;51.544;-3.276;2022-12-18T02:33:06;27;26;
74078;PMS5003;62437;51.544;-3.276;2022-12-18T02:35:31;20;19;
74078;PMS5003;62437;51.544;-3.276;2022-12-18T02:37:55;20;19;
74078;PMS5003;62437;51.544;-3.276;2022-12-18T02:40:21;20;18;
74078;PMS5003;62437;51.544;-3.276;2022-12-18T02:42:46;16;16;
74078;PMS5003;62437;51.544;-3.276;2022-12-18T02:45:11;20;18;
74078;PMS5003;62437;51.544;-3.276;2022-12-18T02:47:38;22;19;
74078;PMS5003;62437;51.544;-3.276;2022-12-18T02:50:05;28;24;
74078;PMS5003;62437;51.544;-3.276;2022-12-18T02:52:29;18;16;
74078;PMS5003;62437;51.544;-3.276;2022-12-18T02:54:55;20;19;
74078;PMS5003;62437;51.544;-3.276;2022-12-18T02:57:19;20;19;
74078;PMS5003;62437;51.544;-3.276;2022-12-18T02:59:47;23;23;
74078;PMS5003;62437;51.544;-3.276;2022-12-18T03:02:10;27;23;
74078;PMS5003;62437;51.544;-3.276;2022-12-18T03:04:34;18;18;
74078;PMS5003;62437;51.544;-3.276;2022-12-18T03:07:01;20;19;
74078;PMS5003;62437;51.544;-3.276;2022-12-18T03:09:27;19;18;
74078;PMS5003;62437;51.544;-3.276;2022-12-18T03:11:56;22;19;
74078;PMS5003;62437;51.544;-3.276;2022-12-18T03:14:15;19;16;
74078;PMS5003;62437;51.544;-3.276;2022-12-18T03:16:40;20;19;
74078;PMS5003;62437;51.544;-3.276;2022-12-18T03:19:06;20;19;
74078;PMS5003;62437;51.544;-3.276;2022-12-18T03:21:32;26;22;
74078;PMS5003;62437;51.544;-3.276;2022-12-18T03:23:56;23;22;
74078;PMS5003;62437;51.544;-3.276;2022-12-18T03:26:21;20;19;
74078;PMS5003;62437;51.544;-3.276;2022-12-18T03:28:48;20;19;
74078;PMS5003;62437;51.544;-3.276;2022-12-18T03:31:12;22;20;
74078;PMS5003;62437;51.544;-3.276;2022-12-18T03:33:39;20;19;
74078;PMS5003;62437;51.544;-3.276;2022-12-18T03:36:03;23;20;
74078;PMS5003;62437;51.544;-3.276;2022-12-18T03:38:28;24;22;
74078;PMS5003;62437;51.544;-3.276;2022-12-18T03:40:56;26;22;
74078;PMS5003;62437;51.544;-3.276;2022-12-18T03:43:20;26;23;
74078;PMS5003;62437;51.544;-3.276;2022-12-18T03:45:46;22;19;
74078;PMS5003;62437;51.544;-3.276;2022-12-18T03:48:12;23;19;
74078;PMS5003;62437;51.544;-3.276;2022-12-18T03:50:37;24;22;
74078;PMS5003;62437;51.544;-3.276;2022-12-18T03:53:01;19;18;
74078;PMS5003;62437;51.544;-3.276;2022-12-18T03:55:25;28;24;
74078;PMS5003;62437;51.544;-3.276;2022-12-18T03:57:51;18;16;
74078;PMS5003;62437;51.544;-3.276;2022-12-18T04:00:17;16;16;
74078;PMS5003;62437;51.544;-3.276;2022-12-18T04:02:43;22;20;
74078;PMS5003;62437;51.544;-3.276;2022-12-18T04:05:07;19;16;
74078;PMS5003;62437;51.544;-3.276;2022-12-18T04:07:32;23;21;
74078;PMS5003;62437;51.544;-3.276;2022-12-18T04:09:58;24;23;
74078;PMS5003;62437;51.544;-3.276;2022-12-18T04:12:24;21;21;
74078;PMS5003;62437;51.544;-3.276;2022-12-18T04:14:49;23;21;
74078;PMS5003;62437;51.544;-3.276;2022-12-18T04:17:14;15;15;
74078;PMS5003;62437;51.544;-3.276;2022-12-18T04:19:39;20;18;
74078;PMS5003;62437;51.544;-3.276;2022-12-18T04:22:04;24;20;
74078;PMS5003;62437;51.544;-3.276;2022-12-18T04:24:29;20;18;
74078;PMS5003;62437;51.544;-3.276;2022-12-18T04:26:54;23;18;
74078;PMS5003;62437;51.544;-3.276;2022-12-18T04:29:20;24;24;
74078;PMS5003;62437;51.544;-3.276;2022-12-18T04:31:46;16;15;
74078;PMS5003;62437;51.544;-3.276;2022-12-18T04:34:11;28;19;
74078;PMS5003;62437;51.544;-3.276;2022-12-18T04:36:37;27;25;
74078;PMS5003;62437;51.544;-3.276;2022-12-18T04:39:02;21;20;
74078;PMS5003;62437;51.544;-3.276;2022-12-18T04:41:28;19;18;
74078;PMS5003;62437;51.544;-3.276;2022-12-18T04:43:54;20;19;
74078;PMS5003;62437;51.544;-3.276;2022-12-18T04:46:19;23;21;
74078;PMS5003;62437;51.544;-3.276;2022-12-18T04:48:45;24;21;
74078;PMS5003;62437;51.544;-3.276;2022-12-18T04:51:10;23;21;
74078;PMS5003;62437;51.544;-3.276;2022-12-18T04:53:36;23;20;
74078;PMS5003;62437;51.544;-3.276;2022-12-18T04:56:03;21;20;
74078;PMS5003;62437;51.544;-3.276;2022-12-18T04:58:26;27;19;
74078;PMS5003;62437;51.544;-3.276;2022-12-18T05:00:51;18;18;
74078;PMS5003;62437;51.544;-3.276;2022-12-18T05:03:16;25;24;
74078;PMS5003;62437;51.544;-3.276;2022-12-18T05:05:42;19;18;
74078;PMS5003;62437;51.544;-3.276;2022-12-18T05:08:07;21;21;
74078;PMS5003;62437;51.544;-3.276;2022-12-18T05:10:32;19;19;
74078;PMS5003;62437;51.544;-3.276;2022-12-18T05:12:58;19;18;
74078;PMS5003;62437;51.544;-3.276;2022-12-18T05:15:24;25;20;
74078;PMS5003;62437;51.544;-3.276;2022-12-18T05:17:49;18;16;
74078;PMS5003;62437;51.544;-3.276;2022-12-18T05:20:15;18;18;
74078;PMS5003;62437;51.544;-3.276;2022-12-18T05:22:40;24;23;
74078;PMS5003;62437;51.544;-3.276;2022-12-18T05:25:06;24;19;
74078;PMS5003;62437;51.544;-3.276;2022-12-18T05:27:31;23;20;
74078;PMS5003;62437;51.544;-3.276;2022-12-18T05:29:56;18;18;
74078;PMS5003;62437;51.544;-3.276;2022-12-18T05:32:22;21;20;
74078;PMS5003;62437;51.544;-3.276;2022-12-18T05:34:48;24;20;
74078;PMS5003;62437;51.544;-3.276;2022-12-18T05:37:13;21;21;
74078;PMS5003;62437;51.544;-3.276;2022-12-18T05:39:38;21;21;
74078;PMS5003;62437;51.544;-3.276;2022-12-18T05:42:03;21;21;
74078;PMS5003;62437;51.544;-3.276;2022-12-18T05:44:29;20;16;
74078;PMS5003;62437;51.544;-3.276;2022-12-18T05:46:54;19;17;
74078;PMS5003;62437;51.544;-3.276;2022-12-18T05:49:19;20;15;
74078;PMS5003;62437;51.544;-3.276;2022-12-18T05:51:44;24;24;
74078;PMS5003;62437;51.544;-3.276;2022-12-18T05:54:10;19;17;
74078;PMS5003;62437;51.544;-3.276;2022-12-18T05:56:36;28;25;
74078;PMS5003;62437;51.544;-3.276;2022-12-18T05:59:02;33;30;
74078;PMS5003;62437;51.544;-3.276;2022-12-18T06:01:26;23;21;
74078;PMS5003;62437;51.544;-3.276;2022-12-18T06:03:52;26;24;
74078;PMS5003;62437;51.544;-3.276;2022-12-18T06:06:18;19;17;
74078;PMS5003;62437;51.544;-3.276;2022-12-18T06:08:43;17;17;
74078;PMS5003;62437;51.544;-3.276;2022-12-18T06:11:08;23;23;
74078;PMS5003;62437;51.544;-3.276;2022-12-18T06:13:34;19;19;
74078;PMS5003;62437;51.544;-3.276;2022-12-18T06:16:01;19;17;
74078;PMS5003;62437;51.544;-3.276;2022-12-18T06:18:24;16;16;
74078;PMS5003;62437;51.544;-3.276;2022-12-18T06:20:54;26;25;
74078;PMS5003;62437;51.544;-3.276;2022-12-18T06:23:15;25;23;
74078;PMS5003;62437;51.544;-3.276;2022-12-18T06:25:40;25;24;
74078;PMS5003;62437;51.544;-3.276;2022-12-18T06:28:06;20;19;
74078;PMS5003;62437;51.544;-3.276;2022-12-18T06:30:31;24;23;
74078;PMS5003;62437;51.544;-3.276;2022-12-18T06:32:57;27;24;
74078;PMS5003;62437;51.544;-3.276;2022-12-18T06:35:23;23;21;
74078;PMS5003;62437;51.544;-3.276;2022-12-18T06:37:48;23;19;
74078;PMS5003;62437;51.544;-3.276;2022-12-18T06:40:13;20;19;
74078;PMS5003;62437;51.544;-3.276;2022-12-18T06:42:39;28;21;
74078;PMS5003;62437;51.544;-3.276;2022-12-18T06:45:05;26;24;
74078;PMS5003;62437;51.544;-3.276;2022-12-18T06:47:30;25;24;
74078;PMS5003;62437;51.544;-3.276;2022-12-18T06:49:55;27;21;
74078;PMS5003;62437;51.544;-3.276;2022-12-18T06:52:21;25;23;
74078;PMS5003;62437;51.544;-3.276;2022-12-18T06:54:46;21;19;
74078;PMS5003;62437;51.544;-3.276;2022-12-18T06:57:11;20;20;
74078;PMS5003;62437;51.544;-3.276;2022-12-18T06:59:37;19;17;
74078;PMS5003;62437;51.544;-3.276;2022-12-18T07:02:02;24;23;
74078;PMS5003;62437;51.544;-3.276;2022-12-18T07:04:28;27;27;
74078;PMS5003;62437;51.544;-3.276;2022-12-18T07:06:53;23;23;
74078;PMS5003;62437;51.544;-3.276;2022-12-18T07:09:18;21;21;
74078;PMS5003;62437;51.544;-3.276;2022-12-18T07:11:43;27;25;
74078;PMS5003;62437;51.544;-3.276;2022-12-18T07:14:08;29;28;
74078;PMS5003;62437;51.544;-3.276;2022-12-18T07:16:33;30;26;
74078;PMS5003;62437;51.544;-3.276;2022-12-18T07:18:59;20;20;
74078;PMS5003;62437;51.544;-3.276;2022-12-18T07:21:24;36;32;
74078;PMS5003;62437;51.544;-3.276;2022-12-18T07:23:50;25;21;
74078;PMS5003;62437;51.544;-3.276;2022-12-18T07:26:16;20;17;
74078;PMS5003;62437;51.544;-3.276;2022-12-18T07:28:41;32;24;
74078;PMS5003;62437;51.544;-3.276;2022-12-18T07:31:08;42;37;
74078;PMS5003;62437;51.544;-3.276;2022-12-18T07:33:32;24;23;
74078;PMS5003;62437;51.544;-3.276;2022-12-18T07:35:58;26;25;
74078;PMS5003;62437;51.544;-3.276;2022-12-18T07:38:23;25;21;
74078;PMS5003;62437;51.544;-3.276;2022-12-18T07:40:49;26;25;
74078;PMS5003;62437;51.544;-3.276;2022-12-18T07:43:14;30;25;
74078;PMS5003;62437;51.544;-3.276;2022-12-18T07:45:40;29;29;
74078;PMS5003;62437;51.544;-3.276;2022-12-18T07:48:05;28;25;
74078;PMS5003;62437;51.544;-3.276;2022-12-18T07:50:31;29;26;
74078;PMS5003;62437;51.544;-3.276;2022-12-18T07:52:56;32;26;
74078;PMS5003;62437;51.544;-3.276;2022-12-18T07:55:21;24;23;
74078;PMS5003;62437;51.544;-3.276;2022-12-18T07:57:47;28;26;
74078;PMS5003;62437;51.544;-3.276;2022-12-18T08:00:13;28;24;
74078;PMS5003;62437;51.544;-3.276;2022-12-18T08:02:38;28;22;
74078;PMS5003;62437;51.544;-3.276;2022-12-18T08:05:04;39;35;
74078;PMS5003;62437;51.544;-3.276;2022-12-18T08:07:29;37;31;
74078;PMS5003;62437;51.544;-3.276;2022-12-18T08:09:54;33;32;
74078;PMS5003;62437;51.544;-3.276;2022-12-18T08:12:19;34;30;
74078;PMS5003;62437;51.544;-3.276;2022-12-18T08:14:44;39;35;
74078;PMS5003;62437;51.544;-3.276;2022-12-18T08:17:09;29;26;
74078;PMS5003;62437;51.544;-3.276;2022-12-18T08:19:34;40;31;
74078;PMS5003;62437;51.544;-3.276;2022-12-18T08:22:00;31;24;
74078;PMS5003;62437;51.544;-3.276;2022-12-18T08:24:26;26;25;
74078;PMS5003;62437;51.544;-3.276;2022-12-18T08:26:51;33;29;
74078;PMS5003;62437;51.544;-3.276;2022-12-18T08:29:17;32;29;
74078;PMS5003;62437;51.544;-3.276;2022-12-18T08:31:42;32;29;
74078;PMS5003;62437;51.544;-3.276;2022-12-18T08:34:08;39;35;
74078;PMS5003;62437;51.544;-3.276;2022-12-18T08:36:33;23;23;
74078;PMS5003;62437;51.544;-3.276;2022-12-18T08:38:59;32;29;
74078;PMS5003;62437;51.544;-3.276;2022-12-18T08:41:24;42;35;
74078;PMS5003;62437;51.544;-3.276;2022-12-18T08:43:49;28;25;
74078;PMS5003;62437;51.544;-3.276;2022-12-18T08:46:15;35;29;
74078;PMS5003;62437;51.544;-3.276;2022-12-18T08:48:40;30;29;
74078;PMS5003;62437;51.544;-3.276;2022-12-18T08:51:05;37;34;
74078;PMS5003;62437;51.544;-3.276;2022-12-18T08:53:31;47;38;
74078;PMS5003;62437;51.544;-3.276;2022-12-18T08:55:56;31;30;
74078;PMS5003;62437;51.544;-3.276;2022-12-18T08:58:22;34;33;
74078;PMS5003;62437;51.544;-3.276;2022-12-18T09:00:47;35;33;
74078;PMS5003;62437;51.544;-3.276;2022-12-18T09:03:12;31;28;
74078;PMS5003;62437;51.544;-3.276;2022-12-18T09:05:38;31;30;
74078;PMS5003;62437;51.544;-3.276;2022-12-18T09:08:04;30;30;
74078;PMS5003;62437;51.544;-3.276;2022-12-18T09:10:29;30;26;
74078;PMS5003;62437;51.544;-3.276;2022-12-18T09:12:54;34;31;
74078;PMS5003;62437;51.544;-3.276;2022-12-18T09:15:20;31;26;
74078;PMS5003;62437;51.544;-3.276;2022-12-18T09:17:45;30;28;
74078;PMS5003;62437;51.544;-3.276;2022-12-18T09:20:10;36;33;
74078;PMS5003;62437;51.544;-3.276;2022-12-18T09:22:36;34;31;
74078;PMS5003;62437;51.544;-3.276;2022-12-18T09:25:01;42;37;
74078;PMS5003;62437;51.544;-3.276;2022-12-18T09:27:26;44;39;
74078;PMS5003;62437;51.544;-3.276;2022-12-18T09:29:51;39;34;
74078;PMS5003;62437;51.544;-3.276;2022-12-18T09:32:17;40;36;
74078;PMS5003;62437;51.544;-3.276;2022-12-18T09:34:43;44;37;
74078;PMS5003;62437;51.544;-3.276;2022-12-18T09:37:09;48;40;
74078;PMS5003;62437;51.544;-3.276;2022-12-18T09:39:34;46;44;
74078;PMS5003;62437;51.544;-3.276;2022-12-18T09:41:59;47;41;
74078;PMS5003;62437;51.544;-3.276;2022-12-18T09:44:26;51;41;
74078;PMS5003;62437;51.544;-3.276;2022-12-18T09:46:52;50;44;
74078;PMS5003;62437;51.544;-3.276;2022-12-18T09:49:17;53;48;
74078;PMS5003;62437;51.544;-3.276;2022-12-18T09:51:42;48;43;
74078;PMS5003;62437;51.544;-3.276;2022-12-18T09:54:10;46;42;
74078;PMS5003;62437;51.544;-3.276;2022-12-18T09:56:34;39;36;
74078;PMS5003;62437;51.544;-3.276;2022-12-18T09:58:59;39;36;
74078;PMS5003;62437;51.544;-3.276;2022-12-18T10:01:24;43;41;
74078;PMS5003;62437;51.544;-3.276;2022-12-18T10:03:50;40;37;
74078;PMS5003;62437;51.544;-3.276;2022-12-18T10:06:17;38;35;
74078;PMS5003;62437;51.544;-3.276;2022-12-18T10:08:42;36;34;
74078;PMS5003;62437;51.544;-3.276;2022-12-18T10:11:12;45;38;
74078;PMS5003;62437;51.544;-3.276;2022-12-18T10:13:33;35;30;
74078;PMS5003;62437;51.544;-3.276;2022-12-18T10:16:00;40;31;
74078;PMS5003;62437;51.544;-3.276;2022-12-18T10:18:24;38;33;
74078;PMS5003;62437;51.544;-3.276;2022-12-18T10:20:47;35;34;
74078;PMS5003;62437;51.544;-3.276;2022-12-18T10:23:14;42;39;
74078;PMS5003;62437;51.544;-3.276;2022-12-18T10:25:40;42;39;
74078;PMS5003;62437;51.544;-3.276;2022-12-18T10:28:07;43;39;
74078;PMS5003;62437;51.544;-3.276;2022-12-18T10:30:29;39;38;
74078;PMS5003;62437;51.544;-3.276;2022-12-18T10:32:54;50;44;
74078;PMS5003;62437;51.544;-3.276;2022-12-18T10:35:20;38;35;
74078;PMS5003;62437;51.544;-3.276;2022-12-18T10:40:12;38;36;
74078;PMS5003;62437;51.544;-3.276;2022-12-18T10:42:36;46;41;
74078;PMS5003;62437;51.544;-3.276;2022-12-18T10:45:02;39;38;
74078;PMS5003;62437;51.544;-3.276;2022-12-18T10:47:26;45;45;
74078;PMS5003;62437;51.544;-3.276;2022-12-18T10:49:52;34;31;
74078;PMS5003;62437;51.544;-3.276;2022-12-18T10:52:19;48;38;
74078;PMS5003;62437;51.544;-3.276;2022-12-18T10:54:48;45;38;
74078;PMS5003;62437;51.544;-3.276;2022-12-18T10:57:15;51;48;
74078;PMS5003;62437;51.544;-3.276;2022-12-18T10:59:35;46;44;
74078;PMS5003;62437;51.544;-3.276;2022-12-18T11:02:01;44;39;
74078;PMS5003;62437;51.544;-3.276;2022-12-18T11:04:27;42;36;
74078;PMS5003;62437;51.544;-3.276;2022-12-18T11:06:53;46;37;
74078;PMS5003;62437;51.544;-3.276;2022-12-18T11:09:19;41;39;
74078;PMS5003;62437;51.544;-3.276;2022-12-18T11:11:42;42;40;
74078;PMS5003;62437;51.544;-3.276;2022-12-18T11:14:12;31;30;
74078;PMS5003;62437;51.544;-3.276;2022-12-18T11:16:34;34;31;
74078;PMS5003;62437;51.544;-3.276;2022-12-18T11:21:25;35;34;
74078;PMS5003;62437;51.544;-3.276;2022-12-18T11:23:50;32;31;
74078;PMS5003;62437;51.544;-3.276;2022-12-18T11:26:15;27;25;
74078;PMS5003;62437;51.544;-3.276;2022-12-18T11:28:41;47;42;
74078;PMS5003;62437;51.544;-3.276;2022-12-18T11:31:11;36;35;
74078;PMS5003;62437;51.544;-3.276;2022-12-18T11:33:31;35;29;
74078;PMS5003;62437;51.544;-3.276;2022-12-18T11:35:57;53;47;
74078;PMS5003;62437;51.544;-3.276;2022-12-18T11:38:23;36;34;
74078;PMS5003;62437;51.544;-3.276;2022-12-18T11:40:49;42;37;
74078;PMS5003;62437;51.544;-3.276;2022-12-18T11:43:14;35;30;
74078;PMS5003;62437;51.544;-3.276;2022-12-18T11:45:40;49;43;
74078;PMS5003;62437;51.544;-3.276;2022-12-18T11:48:05;40;36;
74078;PMS5003;62437;51.544;-3.276;2022-12-18T11:50:31;35;30;
74078;PMS5003;62437;51.544;-3.276;2022-12-18T11:52:55;35;30;
74078;PMS5003;62437;51.544;-3.276;2022-12-18T11:55:24;36;35;
74078;PMS5003;62437;51.544;-3.276;2022-12-18T11:57:48;71;61;
74078;PMS5003;62437;51.544;-3.276;2022-12-18T12:00:13;35;32;
74078;PMS5003;62437;51.544;-3.276;2022-12-18T12:02:41;42;36;
74078;PMS5003;62437;51.544;-3.276;2022-12-18T12:05:09;32;29;
74078;PMS5003;62437;51.544;-3.276;2022-12-18T12:07:32;34;31;
74078;PMS5003;62437;51.544;-3.276;2022-12-18T12:09:56;30;26;
74078;PMS5003;62437;51.544;-3.276;2022-12-18T12:12:23;30;30;
74078;PMS5003;62437;51.544;-3.276;2022-12-18T12:14:47;34;30;
74078;PMS5003;62437;51.544;-3.276;2022-12-18T12:17:12;34;27;
74078;PMS5003;62437;51.544;-3.276;2022-12-18T12:19:38;35;32;
74078;PMS5003;62437;51.544;-3.276;2022-12-18T12:22:03;46;44;
74078;PMS5003;62437;51.544;-3.276;2022-12-18T12:24:29;27;25;
74078;PMS5003;62437;51.544;-3.276;2022-12-18T12:26:55;36;35;
74078;PMS5003;62437;51.544;-3.276;2022-12-18T12:29:21;25;23;
74078;PMS5003;62437;51.544;-3.276;2022-12-18T12:31:47;27;25;
74078;PMS5003;62437;51.544;-3.276;2022-12-18T12:34:11;38;35;
74078;PMS5003;62437;51.544;-3.276;2022-12-18T12:36:36;31;28;
74078;PMS5003;62437;51.544;-3.276;2022-12-18T12:39:01;28;26;
74078;PMS5003;62437;51.544;-3.276;2022-12-18T12:41:26;25;22;
74078;PMS5003;62437;51.544;-3.276;2022-12-18T12:43:51;29;26;
74078;PMS5003;62437;51.544;-3.276;2022-12-18T12:46:17;26;25;
74078;PMS5003;62437;51.544;-3.276;2022-12-18T12:48:43;26;23;
74078;PMS5003;62437;51.544;-3.276;2022-12-18T12:51:09;23;22;
74078;PMS5003;62437;51.544;-3.276;2022-12-18T12:53:34;22;21;
74078;PMS5003;62437;51.544;-3.276;2022-12-18T12:55:58;27;25;
74078;PMS5003;62437;51.544;-3.276;2022-12-18T12:58:28;25;22;
74078;PMS5003;62437;51.544;-3.276;2022-12-18T13:00:50;33;30;
74078;PMS5003;62437;51.544;-3.276;2022-12-18T13:03:27;27;22;
74078;PMS5003;62437;51.544;-3.276;2022-12-18T13:05:43;18;18;
74078;PMS5003;62437;51.544;-3.276;2022-12-18T13:08:07;23;18;
74078;PMS5003;62437;51.544;-3.276;2022-12-18T13:10:34;22;21;
74078;PMS5003;62437;51.544;-3.276;2022-12-18T13:12:59;17;17;
74078;PMS5003;62437;51.544;-3.276;2022-12-18T13:15:25;21;21;
74078;PMS5003;62437;51.544;-3.276;2022-12-18T13:17:50;18;18;
74078;PMS5003;62437;51.544;-3.276;2022-12-18T13:20:15;18;18;
74078;PMS5003;62437;51.544;-3.276;2022-12-18T13:22:42;17;17;
74078;PMS5003;62437;51.544;-3.276;2022-12-18T13:29:56;25;20;
74078;PMS5003;62437;51.544;-3.276;2022-12-18T13:32:22;17;16;
74078;PMS5003;62437;51.544;-3.276;2022-12-18T13:34:46;16;15;
74078;PMS5003;62437;51.544;-3.276;2022-12-18T13:39:38;20;17;
74078;PMS5003;62437;51.544;-3.276;2022-12-18T13:44:31;20;17;
74078;PMS5003;62437;51.544;-3.276;2022-12-18T13:46:55;20;17;
74078;PMS5003;62437;51.544;-3.276;2022-12-18T13:49:22;17;16;
74078;PMS5003;62437;51.544;-3.276;2022-12-18T13:51:48;15;13;
74078;PMS5003;62437;51.544;-3.276;2022-12-18T13:54:14;22;21;
74078;PMS5003;62437;51.544;-3.276;2022-12-18T13:56:42;13;13;
74078;PMS5003;62437;51.544;-3.276;2022-12-18T13:59:10;16;15;
74078;PMS5003;62437;51.544;-3.276;2022-12-18T14:01:27;13;13;
74078;PMS5003;62437;51.544;-3.276;2022-12-18T14:06:18;15;13;
74078;PMS5003;62437;51.544;-3.276;2022-12-18T14:08:44;13;13;
74078;PMS5003;62437;51.544;-3.276;2022-12-18T14:11:20;11;10;
74078;PMS5003;62437;51.544;-3.276;2022-12-18T14:13:36;11;10;
74078;PMS5003;62437;51.544;-3.276;2022-12-18T14:16:01;11;8;
74078;PMS5003;62437;51.544;-3.276;2022-12-18T14:18:29;15;12;
74078;PMS5003;62437;51.544;-3.276;2022-12-18T14:20:53;11;11;
74078;PMS5003;62437;51.544;-3.276;2022-12-18T14:23:25;10;10;
74078;PMS5003;62437;51.544;-3.276;2022-12-18T14:25:45;12;12;
74078;PMS5003;62437;51.544;-3.276;2022-12-18T14:28:13;12;11;
74078;PMS5003;62437;51.544;-3.276;2022-12-18T14:30:35;8;7;
74078;PMS5003;62437;51.544;-3.276;2022-12-18T14:33:02;11;11;
74078;PMS5003;62437;51.544;-3.276;2022-12-18T14:35:25;12;11;
74078;PMS5003;62437;51.544;-3.276;2022-12-18T14:37:51;10;8;
74078;PMS5003;62437;51.544;-3.276;2022-12-18T14:40:16;16;16;
74078;PMS5003;62437;51.544;-3.276;2022-12-18T14:42:42;11;11;
74078;PMS5003;62437;51.544;-3.276;2022-12-18T14:47:33;11;11;
74078;PMS5003;62437;51.544;-3.276;2022-12-18T14:49:58;15;12;
74078;PMS5003;62437;51.544;-3.276;2022-12-18T14:52:25;10;8;
74078;PMS5003;62437;51.544;-3.276;2022-12-18T14:54:48;10;8;
74078;PMS5003;62437;51.544;-3.276;2022-12-18T14:57:16;10;10;
74078;PMS5003;62437;51.544;-3.276;2022-12-18T14:59:40;13;12;
74078;PMS5003;62437;51.544;-3.276;2022-12-18T15:02:09;10;10;
74078;PMS5003;62437;51.544;-3.276;2022-12-18T15:04:31;9;8;
74078;PMS5003;62437;51.544;-3.276;2022-12-18T15:07:04;10;10;
74078;PMS5003;62437;51.544;-3.276;2022-12-18T15:09:22;8;8;
74078;PMS5003;62437;51.544;-3.276;2022-12-18T15:11:48;10;7;
74078;PMS5003;62437;51.544;-3.276;2022-12-18T15:16:38;7;7;
74078;PMS5003;62437;51.544;-3.276;2022-12-18T15:19:03;8;8;
74078;PMS5003;62437;51.544;-3.276;2022-12-18T15:21:29;10;10;
74078;PMS5003;62437;51.544;-3.276;2022-12-18T15:23:54;7;7;
74078;PMS5003;62437;51.544;-3.276;2022-12-18T15:26:20;11;10;
74078;PMS5003;62437;51.544;-3.276;2022-12-18T15:28:45;7;7;
74078;PMS5003;62437;51.544;-3.276;2022-12-18T15:33:37;9;8;
74078;PMS5003;62437;51.544;-3.276;2022-12-18T15:36:03;9;8;
74078;PMS5003;62437;51.544;-3.276;2022-12-18T15:38:27;8;7;
74078;PMS5003;62437;51.544;-3.276;2022-12-18T15:40:53;9;9;
74078;PMS5003;62437;51.544;-3.276;2022-12-18T15:43:18;12;12;
74078;PMS5003;62437;51.544;-3.276;2022-12-18T15:45:44;12;11;
74078;PMS5003;62437;51.544;-3.276;2022-12-18T15:48:15;10;10;
74078;PMS5003;62437;51.544;-3.276;2022-12-18T15:50:35;8;8;
74078;PMS5003;62437;51.544;-3.276;2022-12-18T15:53:00;12;12;
74078;PMS5003;62437;51.544;-3.276;2022-12-18T15:55:25;9;9;
74078;PMS5003;62437;51.544;-3.276;2022-12-18T15:57:50;8;8;
74078;PMS5003;62437;51.544;-3.276;2022-12-18T16:00:17;13;12;
74078;PMS5003;62437;51.544;-3.276;2022-12-18T16:02:41;8;8;
74078;PMS5003;62437;51.544;-3.276;2022-12-18T16:05:09;7;7;
74078;PMS5003;62437;51.544;-3.276;2022-12-18T16:07:32;8;8;
74078;PMS5003;62437;51.544;-3.276;2022-12-18T16:09:58;13;11;
74078;PMS5003;62437;51.544;-3.276;2022-12-18T16:12:23;8;8;
74078;PMS5003;62437;51.544;-3.276;2022-12-18T16:14:49;9;8;
74078;PMS5003;62437;51.544;-3.276;2022-12-18T16:17:14;8;8;
74078;PMS5003;62437;51.544;-3.276;2022-12-18T16:19:43;8;7;